Bessie Ellen — ZITL7 — position and weather

sailwx.info

Track history (hours):
 
Tides and Currents Weather Stations Pressure Air Temp Water Temp Dewpoint Dewpoint Depression Visibility Wind Speed Wind Dir Waves Ship Positions

Bessie Ellen

Ship's website: http://bessie-ellen.com/blog/

Last reported at 2019-Jun-03 12:47 UTC. Time now 2019-Jun-16 14:46 UTC.
Position N 57°19' W 005°55'.
Warning: this ship's position is 13 days out of date.

Length 28 m.

Type: Sailing vessel. MMSI: 235005952.

Date/timePositionNaut miles runAvg speedWind from/ knotsBaromVisibWave heightAir tempDewpointWater temp
2019-Jun-03 12:47N 57°19' W 005°55'2 5.7
2019-Jun-03 12:30N 57°18' W 005°53'3 5.0
2019-Jun-03 12:00N 57°17' W 005°48'2 4.7
2019-Jun-03 11:31N 57°17' W 005°44'2 4.6
2019-Jun-03 11:00N 57°16' W 005°40'1 0.1
2019-Jun-02 15:31N 57°16' W 005°38'0 7.2
2019-Jun-02 15:29N 57°15' W 005°38'  
2019-May-29 11:18N 55°40' W 006°00'4 4.8
2019-May-29 10:33N 55°37' W 006°05'2 4.4
2019-May-29 10:09N 55°36' W 006°07'3 0.1
2019-May-28 09:28N 55°38' W 006°02'  
2019-May-25 13:02N 56°26' W 005°32'1 6.8
2019-May-25 12:56N 56°26' W 005°31'  
Track history (hours):
 
Tides and Currents Weather Stations Pressure Air Temp Water Temp Dewpoint Dewpoint Depression Visibility Wind Speed Wind Dir Waves Ship Positions

Bessie Ellen

Ship's website: http://bessie-ellen.com/blog/

Last reported at 2019-Jun-03 12:47 UTC. Time now 2019-Jun-16 14:46 UTC.
Position N 57°19' W 005°55'.
Warning: this ship's position is 13 days out of date.

Length 28 m.

Type: Sailing vessel. MMSI: 235005952.

Date/timePositionNaut miles runAvg speedWind from/ knotsBaromVisibWave heightAir tempDewpointWater temp
2019-Jun-03 12:47N 57°19' W 005°55'2 5.7
2019-Jun-03 12:30N 57°18' W 005°53'3 5.0
2019-Jun-03 12:00N 57°17' W 005°48'2 4.7
2019-Jun-03 11:31N 57°17' W 005°44'2 4.6
2019-Jun-03 11:00N 57°16' W 005°40'1 0.1
2019-Jun-02 15:31N 57°16' W 005°38'0 7.2
2019-Jun-02 15:29N 57°15' W 005°38'  
2019-May-29 11:18N 55°40' W 006°00'4 4.8
2019-May-29 10:33N 55°37' W 006°05'2 4.4
2019-May-29 10:09N 55°36' W 006°07'3 0.1
2019-May-28 09:28N 55°38' W 006°02'  
2019-May-25 13:02N 56°26' W 005°32'1 6.8
2019-May-25 12:56N 56°26' W 005°31'  

Dump ship's entire track history